Latest Weather Observations for Mount William

IDV60801

Issued at 10:05 pm EST Thursday 21 August 2014 (issued every 30 minutes, with the page automatically refreshed every 10 minutes)

About weather observations | Map of weather stations | Latest weather observations for VIC | Other Formats
Station Details ID: 079103 Name: MOUNT WILLIAM Lat: -37.30 Lon: 142.60 Height: 1150.0 m
Data from the previous 72 hours. | See also: Recent months at Mount William
Date/Time
EST
Temp
°C
App
Temp
°C
Dew
Point
Rel
Hum
%
Delta-T
°C
Wind Press
QNH
hPa
Press
MSL
hPa
Rain
since 9 am
mm
Dir
 
Spd
km/h
Gust
km/h
Spd
kts
Gust
kts
21/10:00pm 4.4 -2.2 2.3 86 0.9 N 26 37 14 20 - - 0.2
21/09:30pm 4.0 -2.6 2.2 88 0.8 N 26 35 14 19 - - 0.2
21/09:00pm 3.6 -2.1 2.6 93 0.4 N 22 28 12 15 - - 0.2
21/08:30pm 3.5 -2.2 2.6 94 0.4 N 22 28 12 15 - - 0.2
21/08:00pm 3.5 -1.7 2.5 93 0.4 N 19 24 10 13 - - 0.2
21/07:30pm 3.4 -2.0 2.2 92 0.5 N 20 24 11 13 - - 0.2
21/07:00pm 3.3 -1.6 2.1 92 0.5 N 17 24 9 13 - - 0.2
21/06:30pm 3.2 -1.7 2.2 93 0.4 N 17 20 9 11 - - 0.2
21/06:00pm 3.1 -1.4 2.1 93 0.4 N 15 19 8 10 - - 0.2
21/05:30pm 3.8 -0.3 2.2 89 0.7 N 13 17 7 9 - - 0.2
21/05:00pm 4.8 1.5 2.7 86 0.9 N 9 15 5 8 - - 0.2
21/04:30pm 4.6 1.0 2.8 88 0.8 N 11 15 6 8 - - 0.2
21/04:00pm 4.8 0.4 2.8 87 0.9 NNE 15 20 8 11 - - 0.2
21/03:30pm 4.6 0.6 2.9 89 0.7 N 13 17 7 9 - - 0.2
21/03:00pm 5.0 0.7 3.0 87 0.9 NNE 15 22 8 12 - - 0.2
21/02:30pm 5.1 0.4 3.1 87 0.9 NNE 17 24 9 13 - - 0.2
21/02:00pm 5.6 1.7 3.6 87 0.9 NNE 13 20 7 11 - - 0.0
21/01:30pm 5.5 2.8 3.5 87 0.9 NNE 7 15 4 8 - - 0.0
21/01:00pm 5.0 1.0 4.7 98 0.1 NNW 15 26 8 14 - - 0.0
21/12:30pm 3.4 -0.5 3.3 99 0.0 N 13 22 7 12 - - 0.0
21/12:00pm 4.2 0.8 4.1 99 0.0 NNE 11 17 6 9 - - 0.0
21/11:30am 4.0 -0.2 3.9 99 0.0 N 15 24 8 13 - - 0.0
21/11:00am 3.5 0.0 3.4 99 0.0 NNE 11 19 6 10 - - 0.0
21/10:30am 3.9 -0.3 3.8 99 0.0 NNE 15 24 8 13 - - 0.0
21/10:00am 3.7 -1.5 3.6 99 0.0 NNE 20 28 11 15 - - 0.0
21/09:30am 3.6 -1.4 3.5 99 0.0 NNE 19 26 10 14 - - 0.0
21/09:00am 3.4 -1.3 3.3 99 0.0 NE 17 22 9 12 - - 0.0
21/08:30am 3.1 -1.6 3.0 99 0.0 NE 17 20 9 11 - - 0.0
21/08:00am 2.0 -3.5 1.9 99 0.0 ENE 20 22 11 12 - - 0.0
21/07:30am 0.6 -4.5 0.5 99 0.0 E 17 20 9 11 - - 0.0
21/07:00am 0.6 -5.1 0.5 99 0.0 ESE 20 28 11 15 - - 0.0
21/06:30am 0.7 -5.8 0.6 99 0.0 E 24 33 13 18 - - 0.0
21/06:00am 0.5 -6.7 0.4 99 0.0 E 28 33 15 18 - - 0.0
21/05:30am 0.5 -5.6 0.4 99 0.0 ESE 22 32 12 17 - - 0.0
21/05:00am 0.6 -6.2 0.5 99 0.0 SE 26 33 14 18 - - 0.0
21/04:30am 0.7 -5.8 0.6 99 0.0 SE 24 33 13 18 - - 0.0
21/04:00am 0.8 -6.0 0.7 99 0.0 SE 26 37 14 20 - - 0.0
21/03:30am 0.8 -4.9 0.7 99 0.0 ESE 20 33 11 18 - - 0.0
21/03:00am 0.9 -5.5 0.8 99 0.0 E 24 35 13 19 - - 0.0
21/02:30am 0.8 -6.0 0.7 99 0.0 E 26 35 14 19 - - 0.0
21/02:00am 0.6 -5.5 0.5 99 0.0 ESE 22 32 12 17 - - 0.0
21/01:30am 0.5 -5.2 0.4 99 0.0 ESE 20 32 11 17 - - 0.0
21/01:00am 0.8 -4.9 0.7 99 0.0 ESE 20 30 11 16 - - 0.0
21/12:30am 0.8 -5.3 0.7 99 0.0 SE 22 35 12 19 - - 0.0
21/12:00am 1.6 -4.7 1.5 99 0.0 E 24 35 13 19 - - 0.0
 
Date/Time
EST
Temp
°C
App
Temp
°C
Dew
Point
Rel
Hum
%
Delta-T
°C
Wind Press
QNH
hPa
Press
MSL
hPa
Rain
since 9 am
mm
Dir
 
Spd
km/h
Gust
km/h
Spd
kts
Gust
kts
20/11:30pm 1.5 -4.4 1.4 99 0.0 ESE 22 37 12 20 - - 0.0
20/11:00pm 1.6 -4.0 1.5 99 0.0 SE 20 33 11 18 - - 0.0
20/10:30pm 2.0 -4.2 1.9 99 0.0 SE 24 37 13 20 - - 0.0
20/10:00pm 1.4 -4.9 1.3 99 0.0 SE 24 33 13 18 - - 0.0
20/09:30pm 1.3 -4.7 1.2 99 0.0 SE 22 39 12 21 - - 0.0
20/09:00pm 1.4 -4.6 1.3 99 0.0 SE 22 32 12 17 - - 0.0
20/08:30pm 1.3 -5.4 1.2 99 0.0 SSE 26 39 14 21 - - 0.0
20/08:00pm 1.1 -5.7 1.0 99 0.0 SSE 26 39 14 21 - - 0.0
20/07:30pm 1.2 -5.6 1.1 99 0.0 SSE 26 39 14 21 - - 0.0
20/07:00pm 1.1 -5.3 1.0 99 0.0 SSE 24 37 13 20 - - 0.0
20/06:30pm 1.2 -6.3 1.1 99 0.0 SSE 30 43 16 23 - - 0.0
20/06:00pm 1.2 -5.6 1.1 99 0.0 SSE 26 35 14 19 - - 0.0
20/05:30pm 1.3 -4.3 1.2 99 0.0 SSE 20 32 11 17 - - 0.0
20/05:00pm 1.2 -4.2 1.1 99 0.0 S 19 32 10 17 - - 0.0
20/04:30pm 1.7 -3.3 1.6 99 0.0 S 17 26 9 14 - - 0.0
20/04:00pm 2.0 -2.2 1.9 99 0.0 S 13 22 7 12 - - 0.0
20/03:30pm 2.1 -2.8 2.0 99 0.0 SSE 17 24 9 13 - - 0.0
20/03:00pm 2.1 -2.0 2.0 99 0.0 S 13 24 7 13 - - 0.0
20/02:30pm 2.5 -2.3 2.4 99 0.0 S 17 22 9 12 - - 0.0
20/02:00pm 2.3 -2.9 2.2 99 0.0 SSE 19 28 10 15 - - 0.0
20/01:30pm 2.3 -2.6 2.2 99 0.0 S 17 32 9 17 - - 0.0
20/01:00pm 2.0 -3.5 1.9 99 0.0 S 20 32 11 17 - - 0.0
20/12:30pm 2.1 -2.8 2.0 99 0.0 S 17 28 9 15 - - 0.0
20/12:00pm 2.3 -2.6 2.2 99 0.0 SSE 17 32 9 17 - - 0.0
20/11:30am 2.0 -3.9 1.9 99 0.0 S 22 32 12 17 - - 0.0
20/11:00am 1.5 -5.6 1.4 99 0.0 S 28 35 15 19 - - 0.0
20/10:30am 1.2 -6.3 1.1 99 0.0 SSE 30 41 16 22 - - 0.0
20/10:00am 0.9 -7.0 0.8 99 0.0 S 32 43 17 23 - - 0.0
20/09:30am 1.0 -6.5 0.9 99 0.0 S 30 41 16 22 - - 0.0
20/09:00am 0.7 -7.3 0.6 99 0.0 SSE 32 41 17 22 - - 0.2
20/08:30am 0.3 -7.7 0.2 99 0.0 SSE 32 41 17 22 - - 0.2
20/08:00am 0.3 -7.7 0.2 99 0.0 SSE 32 43 17 23 - - 0.2
20/07:30am 0.6 -7.4 0.5 99 0.0 SSE 32 44 17 24 - - 0.2
20/07:00am 0.4 -7.2 0.3 99 0.0 S 30 43 16 23 - - 0.0
20/06:30am 0.3 -7.0 0.2 99 0.0 SSE 28 39 15 21 - - 0.0
20/06:00am 0.2 -7.1 0.1 99 0.0 SSE 28 39 15 21 - - 0.0
20/05:30am 0.2 -8.0 0.1 99 0.0 S 33 43 18 23 - - 0.0
20/05:00am 0.1 -8.5 0.0 99 0.0 S 35 44 19 24 - - 0.0
20/04:30am 0.0 -8.6 -0.1 99 0.0 S 35 50 19 27 - - 0.0
20/04:00am -0.1 -8.4 -0.2 99 0.0 S 33 46 18 25 - - 0.0
20/03:30am 0.0 -8.6 -0.1 99 0.0 S 35 44 19 24 - - 0.0
20/03:00am -0.1 -8.8 -0.2 99 0.0 S 35 46 19 25 - - 0.0
20/02:30am -0.1 -8.4 -0.2 99 0.0 SSE 33 44 18 24 - - 0.0
20/02:00am -0.1 -8.2 -0.2 99 0.0 SSE 32 43 17 23 - - 0.0
20/01:30am 0.0 -8.1 -0.1 99 0.0 S 32 43 17 23 - - 0.0
20/01:00am 0.0 -8.1 -0.1 99 0.0 S 32 43 17 23 - - 0.0
20/12:30am 0.1 -8.0 0.0 99 0.0 SSE 32 46 17 25 - - 0.0
20/12:00am 0.1 -8.5 0.0 99 0.0 SSE 35 48 19 26 - - 0.0
 
Date/Time
EST
Temp
°C
App
Temp
°C
Dew
Point
Rel
Hum
%
Delta-T
°C
Wind Press
QNH
hPa
Press
MSL
hPa
Rain
since 9 am
mm
Dir
 
Spd
km/h
Gust
km/h
Spd
kts
Gust
kts
19/11:30pm 0.1 -8.5 0.0 99 0.0 SSE 35 44 19 24 - - 0.0
19/11:00pm 0.1 -8.5 0.0 99 0.0 S 35 44 19 24 - - 0.0
19/10:30pm 0.3 -7.7 0.2 99 0.0 SSE 32 41 17 22 - - 0.0
19/10:00pm 0.5 -7.5 0.4 99 0.0 S 32 44 17 24 - - 0.0
19/09:30pm 0.6 -7.0 0.5 99 0.0 S 30 39 16 21 - - 0.0
19/09:00pm 0.7 -6.5 0.6 99 0.0 S 28 43 15 23 - - 0.0
19/08:30pm 0.8 -6.0 0.7 99 0.0 S 26 35 14 19 - - 0.0
19/08:00pm 0.9 -5.9 0.8 99 0.0 S 26 39 14 21 - - 0.0
19/07:30pm 1.1 -5.3 1.0 99 0.0 S 24 33 13 18 - - 0.0
19/07:00pm 1.4 -5.7 1.3 99 0.0 S 28 39 15 21 - - 0.0
19/06:30pm 1.5 -6.0 1.4 99 0.0 S 30 41 16 22 - - 0.0
19/06:00pm 1.0 -5.8 0.9 99 0.0 S 26 39 14 21 - - 0.0
19/05:30pm 1.5 -5.2 1.4 99 0.0 S 26 33 14 18 - - 0.0
19/05:00pm 1.9 -4.7 1.8 99 0.0 S 26 33 14 18 - - 0.0
19/04:30pm 1.9 -4.7 1.8 99 0.0 S 26 35 14 19 - - 0.0
19/04:00pm 2.2 -4.0 2.1 99 0.0 S 24 33 13 18 - - 0.0
19/03:30pm 2.4 -3.4 2.3 99 0.0 S 22 30 12 16 - - 0.0
19/03:00pm 2.1 -4.1 2.0 99 0.0 S 24 32 13 17 - - 0.0
19/02:30pm 2.4 -3.4 2.3 99 0.0 S 22 33 12 18 - - 0.0
19/02:00pm 2.5 -3.3 2.4 99 0.0 S 22 32 12 17 - - 0.0
19/01:30pm 2.6 -3.2 2.5 99 0.0 S 22 32 12 17 - - 0.0
19/01:00pm 2.6 -3.9 2.5 99 0.0 S 26 35 14 19 - - 0.0
19/12:30pm 2.4 -4.5 2.3 99 0.0 S 28 37 15 20 - - 0.0
19/12:00pm 2.7 -4.6 2.6 99 0.0 S 30 39 16 21 - - 0.0
19/11:30am 2.3 -5.0 2.2 99 0.0 S 30 37 16 20 - - 0.0
19/11:00am 2.2 -5.5 2.1 99 0.0 S 32 41 17 22 - - 0.0
19/10:30am 2.4 -4.9 2.3 99 0.0 S 30 39 16 21 - - 0.0
19/10:00am 2.2 -5.5 2.1 99 0.0 S 32 43 17 23 - - 0.0
19/09:30am 2.1 -5.8 2.0 99 0.0 S 33 43 18 23 - - 0.0
19/09:00am 1.9 -6.1 1.8 99 0.0 S 33 43 18 23 - - 2.4
19/08:30am 1.8 -6.6 1.7 99 0.0 S 35 46 19 25 - - 2.4
19/08:00am 1.5 -7.3 1.4 99 0.0 S 37 44 20 24 - - 2.4
19/07:30am 1.4 -7.8 1.3 99 0.0 S 39 50 21 27 - - 2.4
19/07:00am 1.3 -8.7 1.2 99 0.0 S 43 50 23 27 - - 2.4
19/06:30am 1.2 -8.0 1.1 99 0.0 S 39 52 21 28 - - 2.4
19/06:00am 1.3 -7.9 1.2 99 0.0 S 39 48 21 26 - - 2.4
19/05:30am 1.3 -8.3 1.2 99 0.0 S 41 46 22 25 - - 2.4
19/05:00am 1.8 -7.3 1.7 99 0.0 S 39 44 21 24 - - 2.4
19/04:30am 1.8 -6.9 1.7 99 0.0 S 37 48 20 26 - - 2.4
19/04:00am 1.1 -8.1 1.0 99 0.0 S 39 46 21 25 - - 2.4
19/03:30am 1.6 -7.6 1.5 99 0.0 S 39 46 21 25 - - 2.0
19/03:00am 1.9 -7.2 1.8 99 0.0 S 39 46 21 25 - - 2.0
19/02:30am 2.2 -6.5 2.1 99 0.0 S 37 46 20 25 - - 2.0
19/02:00am 2.1 -7.7 2.0 99 0.0 S 43 50 23 27 - - 2.0
19/01:30am 1.9 -8.2 1.8 99 0.0 S 44 56 24 30 - - 1.8
19/01:00am 1.7 -8.4 1.6 99 0.0 S 44 52 24 28 - - 1.8
19/12:30am 1.9 -7.2 1.8 99 0.0 S 39 50 21 27 - - 1.8
19/12:00am 1.8 -7.7 1.7 99 0.0 S 41 48 22 26 - - 1.6
 
Date/Time
EST
Temp
°C
App
Temp
°C
Dew
Point
Rel
Hum
%
Delta-T
°C
Wind Press
QNH
hPa
Press
MSL
hPa
Rain
since 9 am
mm
Dir
 
Spd
km/h
Gust
km/h
Spd
kts
Gust
kts
18/11:30pm 1.9 -7.2 1.8 99 0.0 S 39 50 21 27 - - 1.6
18/11:00pm 2.0 -7.1 1.9 99 0.0 S 39 48 21 26 - - 1.6
18/10:30pm 1.9 -7.2 1.8 99 0.0 S 39 54 21 29 - - 1.6

Other Formats:

Comma delimited format used in spreadsheet applications
http://www.bom.gov.au/fwo/IDV60801/IDV60801.94833.axf

JavaScript Object Notation format (JSON) in row-major order
http://www.bom.gov.au/fwo/IDV60801/IDV60801.94833.json